sensor_id;sensor_type;location;lat;lon;timestamp;pressure;altitude;pressure_sealevel;temperature;humidity
49063;BME280;34876;51.464;-0.150;2023-07-29T00:03:53;100508.19;;;23.81;49.52
49063;BME280;34876;51.464;-0.150;2023-07-29T00:06:24;100508.45;;;23.83;49.50
49063;BME280;34876;51.464;-0.150;2023-07-29T00:08:54;100512.80;;;23.80;49.54
49063;BME280;34876;51.464;-0.150;2023-07-29T00:11:22;100510.65;;;23.79;49.60
49063;BME280;34876;51.464;-0.150;2023-07-29T00:13:52;100508.89;;;23.68;49.94
49063;BME280;34876;51.464;-0.150;2023-07-29T00:16:22;100509.69;;;23.75;49.71
49063;BME280;34876;51.464;-0.150;2023-07-29T00:18:52;100516.30;;;23.77;49.66
49063;BME280;34876;51.464;-0.150;2023-07-29T00:21:27;100513.66;;;23.79;49.64
49063;BME280;34876;51.464;-0.150;2023-07-29T00:24:00;100517.33;;;23.81;49.60
49063;BME280;34876;51.464;-0.150;2023-07-29T00:26:29;100509.83;;;23.78;49.68
49063;BME280;34876;51.464;-0.150;2023-07-29T00:28:58;100512.38;;;23.80;49.60
49063;BME280;34876;51.464;-0.150;2023-07-29T00:31:28;100507.21;;;23.76;49.71
49063;BME280;34876;51.464;-0.150;2023-07-29T00:33:58;100517.13;;;23.41;50.75
49063;BME280;34876;51.464;-0.150;2023-07-29T00:36:27;100514.24;;;23.52;50.43
49063;BME280;34876;51.464;-0.150;2023-07-29T00:38:55;100514.17;;;23.55;50.37
49063;BME280;34876;51.464;-0.150;2023-07-29T00:41:25;100513.28;;;23.60;50.22
49063;BME280;34876;51.464;-0.150;2023-07-29T00:44:00;100510.10;;;23.72;49.86
49063;BME280;34876;51.464;-0.150;2023-07-29T00:46:33;100506.57;;;23.72;49.86
49063;BME280;34876;51.464;-0.150;2023-07-29T00:49:04;100507.37;;;23.72;49.81
49063;BME280;34876;51.464;-0.150;2023-07-29T00:51:35;100508.52;;;23.69;49.94
49063;BME280;34876;51.464;-0.150;2023-07-29T00:54:04;100509.32;;;23.74;49.78
49063;BME280;34876;51.464;-0.150;2023-07-29T00:56:35;100515.55;;;23.75;49.75
49063;BME280;34876;51.464;-0.150;2023-07-29T00:59:05;100515.93;;;23.64;50.01
49063;BME280;34876;51.464;-0.150;2023-07-29T01:01:33;100522.77;;;23.33;50.62
49063;BME280;34876;51.464;-0.150;2023-07-29T01:04:05;100516.41;;;23.66;49.96
49063;BME280;34876;51.464;-0.150;2023-07-29T01:06:50;100513.36;;;23.71;49.79
49063;BME280;34876;51.464;-0.150;2023-07-29T01:09:29;100507.12;;;23.70;49.79
49063;BME280;34876;51.464;-0.150;2023-07-29T01:12:07;100507.15;;;23.73;49.70
49063;BME280;34876;51.464;-0.150;2023-07-29T01:14:43;100506.63;;;23.64;49.91
49063;BME280;34876;51.464;-0.150;2023-07-29T01:17:23;100507.58;;;23.73;49.71
49063;BME280;34876;51.464;-0.150;2023-07-29T01:20:00;100506.35;;;23.74;49.63
49063;BME280;34876;51.464;-0.150;2023-07-29T01:22:30;100502.35;;;23.74;49.59
49063;BME280;34876;51.464;-0.150;2023-07-29T01:25:01;100497.92;;;23.75;49.56
49063;BME280;34876;51.464;-0.150;2023-07-29T01:27:32;100498.79;;;23.68;49.79
49063;BME280;34876;51.464;-0.150;2023-07-29T01:30:07;100493.46;;;23.71;49.67
49063;BME280;34876;51.464;-0.150;2023-07-29T01:32:46;100492.11;;;23.72;49.65
49063;BME280;34876;51.464;-0.150;2023-07-29T01:35:22;100490.25;;;23.74;49.56
49063;BME280;34876;51.464;-0.150;2023-07-29T01:37:57;100488.54;;;23.74;49.55
49063;BME280;34876;51.464;-0.150;2023-07-29T01:40:28;100493.13;;;23.75;49.54
49063;BME280;34876;51.464;-0.150;2023-07-29T01:42:57;100494.14;;;23.71;49.61
49063;BME280;34876;51.464;-0.150;2023-07-29T01:45:34;100497.58;;;23.69;49.67
49063;BME280;34876;51.464;-0.150;2023-07-29T01:48:04;100496.64;;;23.73;49.54
49063;BME280;34876;51.464;-0.150;2023-07-29T01:50:34;100492.22;;;23.76;49.47
49063;BME280;34876;51.464;-0.150;2023-07-29T01:53:03;100488.91;;;23.75;49.46
49063;BME280;34876;51.464;-0.150;2023-07-29T01:55:33;100490.05;;;23.66;49.65
49063;BME280;34876;51.464;-0.150;2023-07-29T01:58:02;100487.81;;;23.72;49.51
49063;BME280;34876;51.464;-0.150;2023-07-29T02:00:30;100484.32;;;23.72;49.50
49063;BME280;34876;51.464;-0.150;2023-07-29T02:03:00;100485.26;;;23.75;49.40
49063;BME280;34876;51.464;-0.150;2023-07-29T02:05:30;100488.33;;;23.75;49.40
49063;BME280;34876;51.464;-0.150;2023-07-29T02:07:59;100487.19;;;23.73;49.41
49063;BME280;34876;51.464;-0.150;2023-07-29T02:10:28;100488.88;;;23.74;49.38
49063;BME280;34876;51.464;-0.150;2023-07-29T02:12:57;100492.25;;;23.76;49.32
49063;BME280;34876;51.464;-0.150;2023-07-29T02:15:26;100494.99;;;23.75;49.32
49063;BME280;34876;51.464;-0.150;2023-07-29T02:17:55;100492.42;;;23.74;49.33
49063;BME280;34876;51.464;-0.150;2023-07-29T02:20:24;100489.61;;;23.74;49.33
49063;BME280;34876;51.464;-0.150;2023-07-29T02:22:53;100493.10;;;23.72;49.39
49063;BME280;34876;51.464;-0.150;2023-07-29T02:25:23;100498.64;;;23.73;49.34
49063;BME280;34876;51.464;-0.150;2023-07-29T02:27:52;100493.34;;;23.74;49.30
49063;BME280;34876;51.464;-0.150;2023-07-29T02:30:21;100492.67;;;23.73;49.32
49063;BME280;34876;51.464;-0.150;2023-07-29T02:32:50;100495.34;;;23.72;49.34
49063;BME280;34876;51.464;-0.150;2023-07-29T02:35:19;100490.70;;;23.73;49.30
49063;BME280;34876;51.464;-0.150;2023-07-29T02:37:48;100489.94;;;23.69;49.39
49063;BME280;34876;51.464;-0.150;2023-07-29T02:40:17;100488.65;;;23.68;49.42
49063;BME280;34876;51.464;-0.150;2023-07-29T02:42:47;100482.37;;;23.72;49.30
49063;BME280;34876;51.464;-0.150;2023-07-29T02:45:17;100479.42;;;23.70;49.35
49063;BME280;34876;51.464;-0.150;2023-07-29T02:47:47;100475.80;;;23.70;49.34
49063;BME280;34876;51.464;-0.150;2023-07-29T02:50:16;100467.57;;;23.70;49.34
49063;BME280;34876;51.464;-0.150;2023-07-29T02:52:45;100470.65;;;23.71;49.31
49063;BME280;34876;51.464;-0.150;2023-07-29T02:55:15;100473.36;;;23.71;49.34
49063;BME280;34876;51.464;-0.150;2023-07-29T02:57:47;100469.15;;;23.70;49.36
49063;BME280;34876;51.464;-0.150;2023-07-29T03:00:15;100467.59;;;23.70;49.34
49063;BME280;34876;51.464;-0.150;2023-07-29T03:02:44;100474.87;;;23.70;49.37
49063;BME280;34876;51.464;-0.150;2023-07-29T03:05:16;100472.10;;;23.72;49.30
49063;BME280;34876;51.464;-0.150;2023-07-29T03:07:46;100465.95;;;23.69;49.35
49063;BME280;34876;51.464;-0.150;2023-07-29T03:10:16;100468.69;;;23.71;49.33
49063;BME280;34876;51.464;-0.150;2023-07-29T03:12:45;100470.16;;;23.70;49.32
49063;BME280;34876;51.464;-0.150;2023-07-29T03:15:15;100466.26;;;23.71;49.31
49063;BME280;34876;51.464;-0.150;2023-07-29T03:17:44;100469.53;;;23.69;49.35
49063;BME280;34876;51.464;-0.150;2023-07-29T03:20:14;100469.54;;;23.72;49.28
49063;BME280;34876;51.464;-0.150;2023-07-29T03:22:43;100470.19;;;23.69;49.35
49063;BME280;34876;51.464;-0.150;2023-07-29T03:25:17;100473.48;;;23.68;49.39
49063;BME280;34876;51.464;-0.150;2023-07-29T03:27:46;100473.74;;;23.69;49.35
49063;BME280;34876;51.464;-0.150;2023-07-29T03:30:19;100472.97;;;23.69;49.34
49063;BME280;34876;51.464;-0.150;2023-07-29T03:32:53;100473.93;;;23.68;49.38
49063;BME280;34876;51.464;-0.150;2023-07-29T03:35:23;100475.55;;;23.68;49.38
49063;BME280;34876;51.464;-0.150;2023-07-29T03:37:53;100480.93;;;23.69;49.33
49063;BME280;34876;51.464;-0.150;2023-07-29T03:40:22;100483.83;;;23.70;49.33
49063;BME280;34876;51.464;-0.150;2023-07-29T03:42:51;100485.28;;;23.68;49.37
49063;BME280;34876;51.464;-0.150;2023-07-29T03:45:21;100486.73;;;23.68;49.37
49063;BME280;34876;51.464;-0.150;2023-07-29T03:47:49;100484.88;;;23.68;49.37
49063;BME280;34876;51.464;-0.150;2023-07-29T03:50:19;100484.06;;;23.66;49.41
49063;BME280;34876;51.464;-0.150;2023-07-29T03:52:48;100477.35;;;23.65;49.43
49063;BME280;34876;51.464;-0.150;2023-07-29T03:55:18;100479.91;;;23.66;49.41
49063;BME280;34876;51.464;-0.150;2023-07-29T03:57:48;100481.50;;;23.66;49.41
49063;BME280;34876;51.464;-0.150;2023-07-29T04:00:17;100484.27;;;23.64;49.46
49063;BME280;34876;51.464;-0.150;2023-07-29T04:02:46;100490.03;;;23.66;49.40
49063;BME280;34876;51.464;-0.150;2023-07-29T04:05:17;100492.35;;;23.65;49.43
49063;BME280;34876;51.464;-0.150;2023-07-29T04:07:46;100491.44;;;23.65;49.40
49063;BME280;34876;51.464;-0.150;2023-07-29T04:10:15;100493.09;;;23.65;49.42
49063;BME280;34876;51.464;-0.150;2023-07-29T04:12:45;100494.51;;;23.64;49.43
49063;BME280;34876;51.464;-0.150;2023-07-29T04:15:16;100493.63;;;23.65;49.40
49063;BME280;34876;51.464;-0.150;2023-07-29T04:17:45;100491.92;;;23.66;49.37
49063;BME280;34876;51.464;-0.150;2023-07-29T04:20:14;100490.75;;;23.65;49.40
49063;BME280;34876;51.464;-0.150;2023-07-29T04:22:44;100494.61;;;23.66;49.37
49063;BME280;34876;51.464;-0.150;2023-07-29T04:25:14;100498.41;;;23.65;49.40
49063;BME280;34876;51.464;-0.150;2023-07-29T04:27:43;100497.74;;;23.64;49.40
49063;BME280;34876;51.464;-0.150;2023-07-29T04:30:12;100493.39;;;23.64;49.40
49063;BME280;34876;51.464;-0.150;2023-07-29T04:32:41;100493.49;;;23.63;49.41
49063;BME280;34876;51.464;-0.150;2023-07-29T04:35:10;100488.23;;;23.64;49.39
49063;BME280;34876;51.464;-0.150;2023-07-29T04:37:39;100487.15;;;23.64;49.40
49063;BME280;34876;51.464;-0.150;2023-07-29T04:40:08;100481.40;;;23.64;49.38
49063;BME280;34876;51.464;-0.150;2023-07-29T04:42:38;100476.99;;;23.62;49.40
49063;BME280;34876;51.464;-0.150;2023-07-29T04:45:10;100477.96;;;23.61;49.44
49063;BME280;34876;51.464;-0.150;2023-07-29T04:47:39;100483.27;;;23.62;49.42
49063;BME280;34876;51.464;-0.150;2023-07-29T04:50:09;100472.44;;;23.63;49.39
49063;BME280;34876;51.464;-0.150;2023-07-29T04:52:37;100469.55;;;23.61;49.42
49063;BME280;34876;51.464;-0.150;2023-07-29T04:55:12;100483.48;;;23.62;49.40
49063;BME280;34876;51.464;-0.150;2023-07-29T04:57:42;100486.80;;;23.62;49.39
49063;BME280;34876;51.464;-0.150;2023-07-29T05:00:11;100485.08;;;23.62;49.38
49063;BME280;34876;51.464;-0.150;2023-07-29T05:02:39;100482.36;;;23.61;49.40
49063;BME280;34876;51.464;-0.150;2023-07-29T05:05:14;100480.73;;;23.61;49.43
49063;BME280;34876;51.464;-0.150;2023-07-29T05:07:43;100487.33;;;23.61;49.41
49063;BME280;34876;51.464;-0.150;2023-07-29T05:10:11;100485.60;;;23.61;49.39
49063;BME280;34876;51.464;-0.150;2023-07-29T05:12:40;100479.21;;;23.60;49.42
49063;BME280;34876;51.464;-0.150;2023-07-29T05:15:10;100473.40;;;23.59;49.43
49063;BME280;34876;51.464;-0.150;2023-07-29T05:17:41;100471.04;;;23.59;49.44
49063;BME280;34876;51.464;-0.150;2023-07-29T05:20:10;100471.72;;;23.59;49.42
49063;BME280;34876;51.464;-0.150;2023-07-29T05:22:39;100470.55;;;23.60;49.41
49063;BME280;34876;51.464;-0.150;2023-07-29T05:25:08;100473.99;;;23.61;49.38
49063;BME280;34876;51.464;-0.150;2023-07-29T05:27:37;100468.78;;;23.58;49.45
49063;BME280;34876;51.464;-0.150;2023-07-29T05:30:08;100470.67;;;23.58;49.45
49063;BME280;34876;51.464;-0.150;2023-07-29T05:32:37;100473.28;;;23.59;49.42
49063;BME280;34876;51.464;-0.150;2023-07-29T05:35:08;100480.09;;;23.60;49.41
49063;BME280;34876;51.464;-0.150;2023-07-29T05:37:38;100479.14;;;23.59;49.43
49063;BME280;34876;51.464;-0.150;2023-07-29T05:40:08;100482.55;;;23.59;49.42
49063;BME280;34876;51.464;-0.150;2023-07-29T05:42:38;100485.50;;;23.59;49.42
49063;BME280;34876;51.464;-0.150;2023-07-29T05:45:08;100488.16;;;23.60;49.40
49063;BME280;34876;51.464;-0.150;2023-07-29T05:47:38;100489.34;;;23.60;49.39
49063;BME280;34876;51.464;-0.150;2023-07-29T05:50:08;100486.17;;;23.58;49.44
49063;BME280;34876;51.464;-0.150;2023-07-29T05:52:42;100486.47;;;23.58;49.42
49063;BME280;34876;51.464;-0.150;2023-07-29T05:55:16;100487.90;;;23.59;49.41
49063;BME280;34876;51.464;-0.150;2023-07-29T05:57:50;100486.37;;;23.58;49.41
49063;BME280;34876;51.464;-0.150;2023-07-29T06:00:19;100486.48;;;23.59;49.38
49063;BME280;34876;51.464;-0.150;2023-07-29T06:02:48;100486.04;;;23.59;49.39
49063;BME280;34876;51.464;-0.150;2023-07-29T06:05:23;100481.22;;;23.58;49.40
49063;BME280;34876;51.464;-0.150;2023-07-29T06:07:53;100486.00;;;23.56;49.44
49063;BME280;34876;51.464;-0.150;2023-07-29T06:10:22;100485.99;;;23.56;49.42
49063;BME280;34876;51.464;-0.150;2023-07-29T06:12:55;100490.38;;;23.59;49.36
49063;BME280;34876;51.464;-0.150;2023-07-29T06:15:31;100490.30;;;23.60;49.33
49063;BME280;34876;51.464;-0.150;2023-07-29T06:17:59;100489.88;;;23.58;49.38
49063;BME280;34876;51.464;-0.150;2023-07-29T06:20:29;100486.87;;;23.58;49.37
49063;BME280;34876;51.464;-0.150;2023-07-29T06:23:00;100487.70;;;23.58;49.36
49063;BME280;34876;51.464;-0.150;2023-07-29T06:25:34;100490.16;;;23.60;49.30
49063;BME280;34876;51.464;-0.150;2023-07-29T06:28:04;100493.75;;;23.62;49.24
49063;BME280;34876;51.464;-0.150;2023-07-29T06:30:39;100488.99;;;23.63;49.21
49063;BME280;34876;51.464;-0.150;2023-07-29T06:33:09;100491.58;;;23.65;49.13
49063;BME280;34876;51.464;-0.150;2023-07-29T06:35:38;100495.09;;;23.69;49.00
49063;BME280;34876;51.464;-0.150;2023-07-29T06:38:07;100499.03;;;23.68;49.04
49063;BME280;34876;51.464;-0.150;2023-07-29T06:40:37;100504.91;;;23.78;48.79
49063;BME280;34876;51.464;-0.150;2023-07-29T06:43:06;100502.02;;;23.76;48.79
49063;BME280;34876;51.464;-0.150;2023-07-29T06:45:41;100501.64;;;23.85;48.57
49063;BME280;34876;51.464;-0.150;2023-07-29T06:48:13;100495.93;;;23.75;48.80
49063;BME280;34876;51.464;-0.150;2023-07-29T06:50:49;100495.01;;;23.88;48.49
49063;BME280;34876;51.464;-0.150;2023-07-29T06:53:20;100493.94;;;23.92;48.37
49063;BME280;34876;51.464;-0.150;2023-07-29T06:55:50;100492.51;;;23.88;48.45
49063;BME280;34876;51.464;-0.150;2023-07-29T06:58:24;100493.18;;;23.76;48.74
49063;BME280;34876;51.464;-0.150;2023-07-29T07:00:54;100494.54;;;23.79;48.68
49063;BME280;34876;51.464;-0.150;2023-07-29T07:03:24;100491.05;;;23.86;48.49
49063;BME280;34876;51.464;-0.150;2023-07-29T07:05:54;100492.98;;;23.91;48.37
49063;BME280;34876;51.464;-0.150;2023-07-29T07:08:23;100491.25;;;23.76;48.77
49063;BME280;34876;51.464;-0.150;2023-07-29T07:10:52;100492.45;;;23.55;49.33
49063;BME280;34876;51.464;-0.150;2023-07-29T07:13:20;100500.02;;;23.64;49.10
49063;BME280;34876;51.464;-0.150;2023-07-29T07:15:50;100503.12;;;23.69;48.92
49063;BME280;34876;51.464;-0.150;2023-07-29T07:18:19;100501.00;;;23.66;49.02
49063;BME280;34876;51.464;-0.150;2023-07-29T07:20:49;100504.64;;;23.64;49.03
49063;BME280;34876;51.464;-0.150;2023-07-29T07:23:18;100502.79;;;23.56;49.21
49063;BME280;34876;51.464;-0.150;2023-07-29T07:25:47;100505.78;;;23.60;49.22
49063;BME280;34876;51.464;-0.150;2023-07-29T07:28:16;100507.98;;;23.62;49.15
49063;BME280;34876;51.464;-0.150;2023-07-29T07:30:45;100509.58;;;23.52;49.53
49063;BME280;34876;51.464;-0.150;2023-07-29T07:33:14;100507.85;;;23.59;49.23
49063;BME280;34876;51.464;-0.150;2023-07-29T07:35:43;100512.81;;;23.53;49.40
49063;BME280;34876;51.464;-0.150;2023-07-29T07:38:11;100519.39;;;23.57;49.27
49063;BME280;34876;51.464;-0.150;2023-07-29T07:40:53;100529.60;;;23.54;49.80
49063;BME280;34876;51.464;-0.150;2023-07-29T07:43:22;100532.49;;;23.50;49.47
49063;BME280;34876;51.464;-0.150;2023-07-29T07:45:58;100528.97;;;23.54;49.35
49063;BME280;34876;51.464;-0.150;2023-07-29T07:48:27;100526.48;;;23.55;49.32
49063;BME280;34876;51.464;-0.150;2023-07-29T07:50:56;100524.13;;;23.46;49.61
49063;BME280;34876;51.464;-0.150;2023-07-29T07:53:26;100515.05;;;23.52;49.43
49063;BME280;34876;51.464;-0.150;2023-07-29T07:55:55;100513.89;;;23.55;49.35
49063;BME280;34876;51.464;-0.150;2023-07-29T07:58:25;100520.19;;;23.55;49.36
49063;BME280;34876;51.464;-0.150;2023-07-29T08:01:01;100519.62;;;23.54;49.41
49063;BME280;34876;51.464;-0.150;2023-07-29T08:03:29;100519.51;;;23.53;49.44
49063;BME280;34876;51.464;-0.150;2023-07-29T08:05:58;100524.36;;;23.53;49.46
49063;BME280;34876;51.464;-0.150;2023-07-29T08:08:28;100530.17;;;23.53;49.44
49063;BME280;34876;51.464;-0.150;2023-07-29T08:10:58;100528.09;;;23.53;49.46
49063;BME280;34876;51.464;-0.150;2023-07-29T08:13:27;100518.64;;;23.52;49.50
49063;BME280;34876;51.464;-0.150;2023-07-29T08:15:57;100512.90;;;23.52;49.48
49063;BME280;34876;51.464;-0.150;2023-07-29T08:18:26;100505.77;;;23.55;49.42
49063;BME280;34876;51.464;-0.150;2023-07-29T08:20:57;100496.84;;;23.53;49.47
49063;BME280;34876;51.464;-0.150;2023-07-29T08:23:27;100493.46;;;23.54;49.43
49063;BME280;34876;51.464;-0.150;2023-07-29T08:25:58;100498.48;;;23.58;49.33
49063;BME280;34876;51.464;-0.150;2023-07-29T08:28:29;100499.35;;;23.59;49.29
49063;BME280;34876;51.464;-0.150;2023-07-29T08:30:59;100500.60;;;23.59;49.32
49063;BME280;34876;51.464;-0.150;2023-07-29T08:33:29;100495.72;;;23.59;49.32
49063;BME280;34876;51.464;-0.150;2023-07-29T08:35:58;100490.93;;;23.55;50.61
49063;BME280;34876;51.464;-0.150;2023-07-29T08:38:28;100487.87;;;23.57;49.38
49063;BME280;34876;51.464;-0.150;2023-07-29T08:41:04;100488.66;;;23.56;49.44
49063;BME280;34876;51.464;-0.150;2023-07-29T08:43:37;100495.01;;;23.57;49.40
49063;BME280;34876;51.464;-0.150;2023-07-29T08:46:08;100497.70;;;23.59;49.32
49063;BME280;34876;51.464;-0.150;2023-07-29T08:48:40;100494.10;;;23.59;49.31
49063;BME280;34876;51.464;-0.150;2023-07-29T08:51:11;100491.26;;;23.62;49.24
49063;BME280;34876;51.464;-0.150;2023-07-29T08:53:40;100491.33;;;23.66;49.12
49063;BME280;34876;51.464;-0.150;2023-07-29T08:56:10;100491.85;;;23.93;48.46
49063;BME280;34876;51.464;-0.150;2023-07-29T08:58:40;100492.12;;;23.86;48.57
49063;BME280;34876;51.464;-0.150;2023-07-29T09:01:09;100493.30;;;23.85;48.61
49063;BME280;34876;51.464;-0.150;2023-07-29T09:03:40;100500.86;;;23.84;48.62
49063;BME280;34876;51.464;-0.150;2023-07-29T09:06:11;100502.65;;;23.85;48.63
49063;BME280;34876;51.464;-0.150;2023-07-29T09:08:42;100504.25;;;23.89;48.56
49063;BME280;34876;51.464;-0.150;2023-07-29T09:11:13;100502.18;;;23.93;48.44
49063;BME280;34876;51.464;-0.150;2023-07-29T09:13:45;100501.89;;;24.01;48.21
49063;BME280;34876;51.464;-0.150;2023-07-29T09:16:15;100507.02;;;23.95;48.35
49063;BME280;34876;51.464;-0.150;2023-07-29T09:18:45;100508.90;;;23.93;48.40
49063;BME280;34876;51.464;-0.150;2023-07-29T09:21:17;100505.24;;;23.96;48.71
49063;BME280;34876;51.464;-0.150;2023-07-29T09:23:47;100505.09;;;23.91;48.53
49063;BME280;34876;51.464;-0.150;2023-07-29T09:26:22;100503.39;;;23.89;48.60
49063;BME280;34876;51.464;-0.150;2023-07-29T09:28:52;100512.23;;;23.92;48.52
49063;BME280;34876;51.464;-0.150;2023-07-29T09:31:24;100511.07;;;23.83;48.72
49063;BME280;34876;51.464;-0.150;2023-07-29T09:33:56;100510.99;;;24.09;48.00
49063;BME280;34876;51.464;-0.150;2023-07-29T09:36:26;100505.79;;;23.99;48.24
49063;BME280;34876;51.464;-0.150;2023-07-29T09:38:57;100508.22;;;23.81;48.69
49063;BME280;34876;51.464;-0.150;2023-07-29T09:41:29;100504.26;;;23.95;48.34
49063;BME280;34876;51.464;-0.150;2023-07-29T09:44:00;100499.50;;;24.16;48.51
49063;BME280;34876;51.464;-0.150;2023-07-29T09:46:33;100500.76;;;24.06;48.03
49063;BME280;34876;51.464;-0.150;2023-07-29T09:49:04;100503.44;;;23.99;48.21
49063;BME280;34876;51.464;-0.150;2023-07-29T09:51:37;100499.38;;;23.87;48.53
49063;BME280;34876;51.464;-0.150;2023-07-29T09:54:07;100502.57;;;23.93;48.34
49063;BME280;34876;51.464;-0.150;2023-07-29T09:56:41;100499.50;;;24.51;46.93
49063;BME280;34876;51.464;-0.150;2023-07-29T09:59:11;100499.55;;;24.55;46.80
49063;BME280;34876;51.464;-0.150;2023-07-29T10:01:41;100498.81;;;24.27;45.63
49063;BME280;34876;51.464;-0.150;2023-07-29T10:04:12;100499.22;;;24.14;47.79
49063;BME280;34876;51.464;-0.150;2023-07-29T10:06:43;100503.33;;;24.26;47.51
49063;BME280;34876;51.464;-0.150;2023-07-29T10:09:14;100506.37;;;24.61;46.64
49063;BME280;34876;51.464;-0.150;2023-07-29T10:11:43;100502.36;;;24.96;45.63
49063;BME280;34876;51.464;-0.150;2023-07-29T10:14:15;100506.69;;;24.85;44.52
49063;BME280;34876;51.464;-0.150;2023-07-29T10:16:46;100506.69;;;24.92;45.71
49063;BME280;34876;51.464;-0.150;2023-07-29T10:19:15;100506.09;;;24.86;45.67
49063;BME280;34876;51.464;-0.150;2023-07-29T10:21:48;100501.96;;;24.78;46.01
49063;BME280;34876;51.464;-0.150;2023-07-29T10:24:19;100502.40;;;24.74;46.21
49063;BME280;34876;51.464;-0.150;2023-07-29T10:26:51;100496.28;;;24.82;45.55
49063;BME280;34876;51.464;-0.150;2023-07-29T10:29:22;100496.30;;;24.76;43.89
49063;BME280;34876;51.464;-0.150;2023-07-29T10:31:53;100496.63;;;24.69;45.40
49063;BME280;34876;51.464;-0.150;2023-07-29T10:34:24;100497.47;;;24.78;45.62
49063;BME280;34876;51.464;-0.150;2023-07-29T10:36:58;100501.20;;;24.90;45.30
49063;BME280;34876;51.464;-0.150;2023-07-29T10:39:37;100497.61;;;24.52;46.48
49063;BME280;34876;51.464;-0.150;2023-07-29T10:42:07;100500.19;;;24.37;45.85
49063;BME280;34876;51.464;-0.150;2023-07-29T10:44:51;100499.09;;;24.58;46.32
49063;BME280;34876;51.464;-0.150;2023-07-29T10:47:23;100503.59;;;24.55;43.82
49063;BME280;34876;51.464;-0.150;2023-07-29T10:49:53;100499.43;;;24.55;43.91
49063;BME280;34876;51.464;-0.150;2023-07-29T10:52:39;100503.35;;;24.33;46.84
49063;BME280;34876;51.464;-0.150;2023-07-29T10:55:44;100507.50;;;24.36;46.37
49063;BME280;34876;51.464;-0.150;2023-07-29T10:58:14;100513.00;;;23.68;44.58
49063;BME280;34876;51.464;-0.150;2023-07-29T11:00:45;100514.54;;;23.68;47.84
49063;BME280;34876;51.464;-0.150;2023-07-29T11:03:14;100511.96;;;24.06;46.88
49063;BME280;34876;51.464;-0.150;2023-07-29T11:05:47;100508.41;;;24.56;46.23
49063;BME280;34876;51.464;-0.150;2023-07-29T11:08:22;100510.30;;;24.67;45.71
49063;BME280;34876;51.464;-0.150;2023-07-29T11:11:01;100501.42;;;24.63;44.08
49063;BME280;34876;51.464;-0.150;2023-07-29T11:13:33;100500.70;;;24.44;46.02
49063;BME280;34876;51.464;-0.150;2023-07-29T11:16:03;100504.85;;;24.47;46.15
49063;BME280;34876;51.464;-0.150;2023-07-29T11:18:34;100503.29;;;24.20;45.09
49063;BME280;34876;51.464;-0.150;2023-07-29T11:21:22;100507.77;;;24.09;47.17
49063;BME280;34876;51.464;-0.150;2023-07-29T11:23:56;100507.42;;;24.26;45.14
49063;BME280;34876;51.464;-0.150;2023-07-29T11:26:28;100510.27;;;24.05;43.44
49063;BME280;34876;51.464;-0.150;2023-07-29T11:28:57;100513.26;;;24.00;45.12
49063;BME280;34876;51.464;-0.150;2023-07-29T11:31:44;100516.78;;;23.93;46.72
49063;BME280;34876;51.464;-0.150;2023-07-29T11:34:31;100519.43;;;23.96;46.99
49063;BME280;34876;51.464;-0.150;2023-07-29T11:37:00;100521.12;;;23.90;42.32
49063;BME280;34876;51.464;-0.150;2023-07-29T11:39:32;100518.78;;;24.23;47.00
49063;BME280;34876;51.464;-0.150;2023-07-29T11:42:01;100520.49;;;24.16;46.94
49063;BME280;34876;51.464;-0.150;2023-07-29T11:44:29;100515.84;;;24.22;46.82
49063;BME280;34876;51.464;-0.150;2023-07-29T11:46:59;100515.99;;;24.29;46.75
49063;BME280;34876;51.464;-0.150;2023-07-29T11:49:29;100515.51;;;24.15;44.33
49063;BME280;34876;51.464;-0.150;2023-07-29T11:51:57;100516.20;;;24.40;46.33
49063;BME280;34876;51.464;-0.150;2023-07-29T11:54:30;100517.80;;;24.12;46.85
49063;BME280;34876;51.464;-0.150;2023-07-29T11:57:03;100520.19;;;24.25;46.29
49063;BME280;34876;51.464;-0.150;2023-07-29T11:59:36;100513.60;;;24.12;45.80
49063;BME280;34876;51.464;-0.150;2023-07-29T12:02:08;100516.86;;;24.01;42.45
49063;BME280;34876;51.464;-0.150;2023-07-29T12:04:41;100522.40;;;24.12;46.72
49063;BME280;34876;51.464;-0.150;2023-07-29T12:07:17;100522.50;;;24.01;46.30
49063;BME280;34876;51.464;-0.150;2023-07-29T12:09:47;100527.44;;;23.94;43.35
49063;BME280;34876;51.464;-0.150;2023-07-29T12:12:31;100525.68;;;24.06;46.97
49063;BME280;34876;51.464;-0.150;2023-07-29T12:15:01;100527.40;;;24.19;46.39
49063;BME280;34876;51.464;-0.150;2023-07-29T12:17:37;100518.73;;;24.18;46.70
49063;BME280;34876;51.464;-0.150;2023-07-29T12:20:09;100520.71;;;24.24;46.55
49063;BME280;34876;51.464;-0.150;2023-07-29T12:22:40;100513.15;;;24.40;42.74
49063;BME280;34876;51.464;-0.150;2023-07-29T12:25:09;100511.58;;;24.45;42.25
49063;BME280;34876;51.464;-0.150;2023-07-29T12:27:43;100514.86;;;24.41;43.56
49063;BME280;34876;51.464;-0.150;2023-07-29T12:30:13;100517.94;;;24.25;42.66
49063;BME280;34876;51.464;-0.150;2023-07-29T12:32:52;100527.99;;;24.23;46.56
49063;BME280;34876;51.464;-0.150;2023-07-29T12:35:35;100527.15;;;24.11;43.10
49063;BME280;34876;51.464;-0.150;2023-07-29T12:38:09;100523.82;;;24.28;46.11
49063;BME280;34876;51.464;-0.150;2023-07-29T12:40:44;100531.25;;;24.25;42.33
49063;BME280;34876;51.464;-0.150;2023-07-29T12:43:14;100531.39;;;24.23;42.29
49063;BME280;34876;51.464;-0.150;2023-07-29T12:45:45;100527.13;;;24.31;45.18
49063;BME280;34876;51.464;-0.150;2023-07-29T12:48:15;100522.64;;;24.36;40.95
49063;BME280;34876;51.464;-0.150;2023-07-29T12:50:45;100535.67;;;24.43;41.41
49063;BME280;34876;51.464;-0.150;2023-07-29T12:53:14;100534.84;;;24.13;45.61
49063;BME280;34876;51.464;-0.150;2023-07-29T12:55:43;100536.03;;;24.00;46.20
49063;BME280;34876;51.464;-0.150;2023-07-29T12:58:12;100527.97;;;24.16;41.30
49063;BME280;34876;51.464;-0.150;2023-07-29T13:00:41;100529.97;;;24.19;46.28
49063;BME280;34876;51.464;-0.150;2023-07-29T13:03:12;100522.43;;;24.33;41.73